Accueil
METAR-TAF:

METAR-TAF

Aéroports :

Aéroport de Győr-Pér

Győr, Hongrie

latitude: 47-37-28N, longitude: 017-48-49E, altitude: 129 m

Observation

Le bulletin a été fait il y a 54 minutes, à 22:15 UTC
Température
Pression

METAR: LHPR 032215Z AUTO /////KT //// ////// ///// Q////

Heure: 00:09 (23:09 UTC)

Prévision

Le bulletin a été fait il y a 5 heures et 54 minutes, à 17:15 UTC
Prévision valable du 03 à 18 UTC au 04 à 03 UTC
Vent 5 kt de est/sud-est
Visibilité: 6000 m
Ciel couvert à une hauteur de 1600 ft
Temporairement
du 03 à 18 UTC au 04 à 03 UTC
Visibilité: 3000 m
Nuages fragmentés à une hauteur de 500 ft
Ciel couvert à une hauteur de 1500 ft
pluie, bruine, brume
Evoluant progressivement
du 03 à 23 UTC au 04 à 02 UTC
Vent 12 kt de sud-est

TAF: LHPR 031715Z 0318/0403 12005KT 6000 OVC016 TEMPO 0318/0403 3000 RADZ BR BKN005 OVC015 BECMG 0323/0402 14012KT

Observations et prévisions météorologiques de plus de 4000 aéroports (messages METAR et TAF).

Les stations disponibles sont représentées par des disques jaunes et rouges sur la carte.

Passer la souris dessus pour voir le nom de la station.

Cliquer dessus pour voir les observations et prévisions météorologiques.

Pour changer de carte: cliquez sur les boutons verts avec une croix noire pour zoomer, sur le bouton vert avec un tiret pour effectuer un zoom arrière, ou sur les flèches vertes pour les cartes adjacentes.


METAR-TAF: